sensor_id;sensor_type;location;lat;lon;timestamp;P1;durP1;ratioP1;P2;durP2;ratioP2
26271;SDS011;13997;48.902;12.472;2023-04-15T00:01:22;15.75;;;10.50;;
26271;SDS011;13997;48.902;12.472;2023-04-15T00:03:49;14.82;;;9.52;;
26271;SDS011;13997;48.902;12.472;2023-04-15T00:06:16;17.40;;;10.88;;
26271;SDS011;13997;48.902;12.472;2023-04-15T00:08:43;13.13;;;10.18;;
26271;SDS011;13997;48.902;12.472;2023-04-15T00:11:09;16.13;;;10.88;;
26271;SDS011;13997;48.902;12.472;2023-04-15T00:13:35;15.55;;;10.40;;
26271;SDS011;13997;48.902;12.472;2023-04-15T00:16:01;16.80;;;10.25;;
26271;SDS011;13997;48.902;12.472;2023-04-15T00:18:27;15.20;;;11.15;;
26271;SDS011;13997;48.902;12.472;2023-04-15T00:20:56;17.05;;;11.93;;
26271;SDS011;13997;48.902;12.472;2023-04-15T00:23:22;13.20;;;10.25;;
26271;SDS011;13997;48.902;12.472;2023-04-15T00:25:48;16.88;;;10.68;;
26271;SDS011;13997;48.902;12.472;2023-04-15T00:28:13;14.13;;;10.75;;
26271;SDS011;13997;48.902;12.472;2023-04-15T00:30:39;16.10;;;10.35;;
26271;SDS011;13997;48.902;12.472;2023-04-15T00:33:05;14.70;;;11.55;;
26271;SDS011;13997;48.902;12.472;2023-04-15T00:35:32;15.18;;;10.40;;
26271;SDS011;13997;48.902;12.472;2023-04-15T00:37:57;14.57;;;11.10;;
26271;SDS011;13997;48.902;12.472;2023-04-15T00:40:23;18.67;;;11.20;;
26271;SDS011;13997;48.902;12.472;2023-04-15T00:42:50;14.30;;;9.95;;
26271;SDS011;13997;48.902;12.472;2023-04-15T00:45:16;14.43;;;10.43;;
26271;SDS011;13997;48.902;12.472;2023-04-15T00:47:42;15.15;;;10.65;;
26271;SDS011;13997;48.902;12.472;2023-04-15T00:50:08;13.65;;;10.30;;
26271;SDS011;13997;48.902;12.472;2023-04-15T00:52:35;14.80;;;11.27;;
26271;SDS011;13997;48.902;12.472;2023-04-15T00:55:01;15.07;;;11.38;;
26271;SDS011;13997;48.902;12.472;2023-04-15T00:57:28;14.93;;;10.65;;
26271;SDS011;13997;48.902;12.472;2023-04-15T00:59:54;15.68;;;11.93;;
26271;SDS011;13997;48.902;12.472;2023-04-15T01:02:20;15.73;;;10.95;;
26271;SDS011;13997;48.902;12.472;2023-04-15T01:04:46;18.15;;;10.77;;
26271;SDS011;13997;48.902;12.472;2023-04-15T01:07:12;15.00;;;11.07;;
26271;SDS011;13997;48.902;12.472;2023-04-15T01:09:38;14.23;;;11.38;;
26271;SDS011;13997;48.902;12.472;2023-04-15T01:12:06;15.80;;;10.75;;
26271;SDS011;13997;48.902;12.472;2023-04-15T01:14:34;14.35;;;10.60;;
26271;SDS011;13997;48.902;12.472;2023-04-15T01:17:00;14.70;;;10.65;;
26271;SDS011;13997;48.902;12.472;2023-04-15T01:19:26;15.25;;;10.57;;
26271;SDS011;13997;48.902;12.472;2023-04-15T01:21:53;14.88;;;10.50;;
26271;SDS011;13997;48.902;12.472;2023-04-15T01:24:19;13.52;;;10.23;;
26271;SDS011;13997;48.902;12.472;2023-04-15T01:26:45;15.23;;;10.82;;
26271;SDS011;13997;48.902;12.472;2023-04-15T01:29:11;14.65;;;10.43;;
26271;SDS011;13997;48.902;12.472;2023-04-15T01:31:37;14.15;;;9.52;;
26271;SDS011;13997;48.902;12.472;2023-04-15T01:34:02;15.52;;;9.88;;
26271;SDS011;13997;48.902;12.472;2023-04-15T01:36:28;12.27;;;8.98;;
26271;SDS011;13997;48.902;12.472;2023-04-15T01:38:54;11.60;;;8.43;;
26271;SDS011;13997;48.902;12.472;2023-04-15T01:41:24;11.05;;;8.55;;
26271;SDS011;13997;48.902;12.472;2023-04-15T01:43:51;12.95;;;8.50;;
26271;SDS011;13997;48.902;12.472;2023-04-15T01:46:17;11.40;;;8.00;;
26271;SDS011;13997;48.902;12.472;2023-04-15T01:48:43;10.20;;;7.78;;
26271;SDS011;13997;48.902;12.472;2023-04-15T01:51:08;9.93;;;6.88;;
26271;SDS011;13997;48.902;12.472;2023-04-15T01:53:34;11.30;;;7.50;;
26271;SDS011;13997;48.902;12.472;2023-04-15T01:55:59;9.27;;;7.22;;
26271;SDS011;13997;48.902;12.472;2023-04-15T01:58:25;11.15;;;7.20;;
26271;SDS011;13997;48.902;12.472;2023-04-15T02:00:51;10.68;;;6.78;;
26271;SDS011;13997;48.902;12.472;2023-04-15T02:03:16;9.40;;;6.88;;
26271;SDS011;13997;48.902;12.472;2023-04-15T02:05:42;9.18;;;6.53;;
26271;SDS011;13997;48.902;12.472;2023-04-15T02:08:08;9.85;;;7.60;;
26271;SDS011;13997;48.902;12.472;2023-04-15T02:10:33;13.77;;;7.20;;
26271;SDS011;13997;48.902;12.472;2023-04-15T02:12:59;8.80;;;7.07;;
26271;SDS011;13997;48.902;12.472;2023-04-15T02:15:25;11.77;;;8.25;;
26271;SDS011;13997;48.902;12.472;2023-04-15T02:17:50;9.50;;;7.15;;
26271;SDS011;13997;48.902;12.472;2023-04-15T02:20:19;11.10;;;7.93;;
26271;SDS011;13997;48.902;12.472;2023-04-15T02:22:45;12.98;;;8.23;;
26271;SDS011;13997;48.902;12.472;2023-04-15T02:25:12;9.02;;;7.63;;
26271;SDS011;13997;48.902;12.472;2023-04-15T02:27:38;10.85;;;8.48;;
26271;SDS011;13997;48.902;12.472;2023-04-15T02:30:04;11.50;;;8.07;;
26271;SDS011;13997;48.902;12.472;2023-04-15T02:32:31;11.35;;;7.45;;
26271;SDS011;13997;48.902;12.472;2023-04-15T02:35:00;11.07;;;8.40;;
26271;SDS011;13997;48.902;12.472;2023-04-15T02:37:27;19.38;;;9.10;;
26271;SDS011;13997;48.902;12.472;2023-04-15T02:39:54;11.32;;;8.75;;
26271;SDS011;13997;48.902;12.472;2023-04-15T02:42:20;12.13;;;8.30;;
26271;SDS011;13997;48.902;12.472;2023-04-15T02:44:46;12.18;;;8.43;;
26271;SDS011;13997;48.902;12.472;2023-04-15T02:47:11;13.15;;;8.35;;
26271;SDS011;13997;48.902;12.472;2023-04-15T02:49:38;10.80;;;8.65;;
26271;SDS011;13997;48.902;12.472;2023-04-15T02:52:04;14.57;;;9.95;;
26271;SDS011;13997;48.902;12.472;2023-04-15T02:54:30;11.98;;;9.02;;
26271;SDS011;13997;48.902;12.472;2023-04-15T02:56:58;14.50;;;9.15;;
26271;SDS011;13997;48.902;12.472;2023-04-15T02:59:23;13.18;;;9.48;;
26271;SDS011;13997;48.902;12.472;2023-04-15T03:01:49;12.48;;;9.27;;
26271;SDS011;13997;48.902;12.472;2023-04-15T03:04:15;14.07;;;9.35;;
26271;SDS011;13997;48.902;12.472;2023-04-15T03:06:40;14.50;;;9.63;;
26271;SDS011;13997;48.902;12.472;2023-04-15T03:09:06;13.25;;;9.48;;
26271;SDS011;13997;48.902;12.472;2023-04-15T03:11:32;14.63;;;10.10;;
26271;SDS011;13997;48.902;12.472;2023-04-15T03:14:00;14.43;;;9.98;;
26271;SDS011;13997;48.902;12.472;2023-04-15T03:16:25;13.90;;;9.60;;
26271;SDS011;13997;48.902;12.472;2023-04-15T03:18:51;17.10;;;10.75;;
26271;SDS011;13997;48.902;12.472;2023-04-15T03:21:16;14.23;;;10.05;;
26271;SDS011;13997;48.902;12.472;2023-04-15T03:23:43;13.02;;;10.40;;
26271;SDS011;13997;48.902;12.472;2023-04-15T03:26:09;13.85;;;10.75;;
26271;SDS011;13997;48.902;12.472;2023-04-15T03:28:47;15.60;;;10.52;;
26271;SDS011;13997;48.902;12.472;2023-04-15T03:31:13;16.77;;;11.45;;
26271;SDS011;13997;48.902;12.472;2023-04-15T03:33:38;18.65;;;11.50;;
26271;SDS011;13997;48.902;12.472;2023-04-15T03:36:04;19.00;;;11.85;;
26271;SDS011;13997;48.902;12.472;2023-04-15T03:38:29;16.45;;;11.93;;
26271;SDS011;13997;48.902;12.472;2023-04-15T03:40:55;17.58;;;12.23;;
26271;SDS011;13997;48.902;12.472;2023-04-15T03:43:21;15.68;;;11.55;;
26271;SDS011;13997;48.902;12.472;2023-04-15T03:45:46;16.48;;;11.60;;
26271;SDS011;13997;48.902;12.472;2023-04-15T03:48:12;18.98;;;12.50;;
26271;SDS011;13997;48.902;12.472;2023-04-15T03:50:37;16.40;;;12.18;;
26271;SDS011;13997;48.902;12.472;2023-04-15T03:53:03;16.55;;;11.85;;
26271;SDS011;13997;48.902;12.472;2023-04-15T03:55:31;15.25;;;11.60;;
26271;SDS011;13997;48.902;12.472;2023-04-15T03:57:56;17.17;;;11.77;;
26271;SDS011;13997;48.902;12.472;2023-04-15T04:00:22;19.65;;;12.65;;
26271;SDS011;13997;48.902;12.472;2023-04-15T04:02:47;20.40;;;12.43;;
26271;SDS011;13997;48.902;12.472;2023-04-15T04:05:13;19.23;;;12.52;;
26271;SDS011;13997;48.902;12.472;2023-04-15T04:07:39;17.23;;;11.32;;
26271;SDS011;13997;48.902;12.472;2023-04-15T04:10:04;16.58;;;12.40;;
26271;SDS011;13997;48.902;12.472;2023-04-15T04:12:30;17.58;;;11.93;;
26271;SDS011;13997;48.902;12.472;2023-04-15T04:14:56;16.73;;;11.43;;
26271;SDS011;13997;48.902;12.472;2023-04-15T04:17:21;16.95;;;11.48;;
26271;SDS011;13997;48.902;12.472;2023-04-15T04:19:47;16.75;;;11.50;;
26271;SDS011;13997;48.902;12.472;2023-04-15T04:22:13;17.88;;;12.00;;
26271;SDS011;13997;48.902;12.472;2023-04-15T04:24:38;17.27;;;12.80;;
26271;SDS011;13997;48.902;12.472;2023-04-15T04:27:04;17.63;;;13.23;;
26271;SDS011;13997;48.902;12.472;2023-04-15T04:29:29;21.40;;;13.45;;
26271;SDS011;13997;48.902;12.472;2023-04-15T04:31:55;19.45;;;13.30;;
26271;SDS011;13997;48.902;12.472;2023-04-15T04:34:20;23.15;;;13.82;;
26271;SDS011;13997;48.902;12.472;2023-04-15T04:36:46;19.42;;;13.68;;
26271;SDS011;13997;48.902;12.472;2023-04-15T04:39:11;21.25;;;14.15;;
26271;SDS011;13997;48.902;12.472;2023-04-15T04:41:37;21.23;;;14.93;;
26271;SDS011;13997;48.902;12.472;2023-04-15T04:44:03;19.58;;;14.27;;
26271;SDS011;13997;48.902;12.472;2023-04-15T04:46:28;22.45;;;14.93;;
26271;SDS011;13997;48.902;12.472;2023-04-15T04:48:54;28.42;;;14.93;;
26271;SDS011;13997;48.902;12.472;2023-04-15T04:51:19;25.60;;;16.73;;
26271;SDS011;13997;48.902;12.472;2023-04-15T04:53:45;23.42;;;15.50;;
26271;SDS011;13997;48.902;12.472;2023-04-15T04:56:11;22.92;;;16.08;;
26271;SDS011;13997;48.902;12.472;2023-04-15T04:58:36;22.13;;;15.52;;
26271;SDS011;13997;48.902;12.472;2023-04-15T05:01:02;23.50;;;16.48;;
26271;SDS011;13997;48.902;12.472;2023-04-15T05:03:28;22.88;;;16.55;;
26271;SDS011;13997;48.902;12.472;2023-04-15T05:05:53;22.45;;;15.27;;
26271;SDS011;13997;48.902;12.472;2023-04-15T05:08:19;30.17;;;17.42;;
26271;SDS011;13997;48.902;12.472;2023-04-15T05:10:45;26.63;;;17.25;;
26271;SDS011;13997;48.902;12.472;2023-04-15T05:13:11;25.63;;;16.88;;
26271;SDS011;13997;48.902;12.472;2023-04-15T05:15:36;26.75;;;16.45;;
26271;SDS011;13997;48.902;12.472;2023-04-15T05:18:03;24.85;;;15.70;;
26271;SDS011;13997;48.902;12.472;2023-04-15T05:20:29;19.13;;;12.57;;
26271;SDS011;13997;48.902;12.472;2023-04-15T05:22:54;17.02;;;11.13;;
26271;SDS011;13997;48.902;12.472;2023-04-15T05:25:20;13.00;;;9.63;;
26271;SDS011;13997;48.902;12.472;2023-04-15T05:27:46;14.95;;;9.10;;
26271;SDS011;13997;48.902;12.472;2023-04-15T05:30:11;12.52;;;8.27;;
26271;SDS011;13997;48.902;12.472;2023-04-15T05:32:37;12.57;;;8.63;;
26271;SDS011;13997;48.902;12.472;2023-04-15T05:35:03;13.02;;;8.18;;
26271;SDS011;13997;48.902;12.472;2023-04-15T05:37:28;12.35;;;8.50;;
26271;SDS011;13997;48.902;12.472;2023-04-15T05:39:54;12.27;;;8.65;;
26271;SDS011;13997;48.902;12.472;2023-04-15T05:42:20;11.35;;;8.23;;
26271;SDS011;13997;48.902;12.472;2023-04-15T05:44:46;12.50;;;8.23;;
26271;SDS011;13997;48.902;12.472;2023-04-15T05:47:11;11.63;;;7.90;;
26271;SDS011;13997;48.902;12.472;2023-04-15T05:49:37;17.10;;;10.35;;
26271;SDS011;13997;48.902;12.472;2023-04-15T05:52:03;11.10;;;8.05;;
26271;SDS011;13997;48.902;12.472;2023-04-15T05:54:28;22.65;;;13.85;;
26271;SDS011;13997;48.902;12.472;2023-04-15T05:56:54;23.90;;;14.27;;
26271;SDS011;13997;48.902;12.472;2023-04-15T05:59:21;15.23;;;10.45;;
26271;SDS011;13997;48.902;12.472;2023-04-15T06:01:47;12.60;;;8.43;;
26271;SDS011;13997;48.902;12.472;2023-04-15T06:04:13;12.60;;;8.98;;
26271;SDS011;13997;48.902;12.472;2023-04-15T06:06:39;17.90;;;9.98;;
26271;SDS011;13997;48.902;12.472;2023-04-15T06:09:05;20.75;;;12.45;;
26271;SDS011;13997;48.902;12.472;2023-04-15T06:11:30;15.30;;;11.43;;
26271;SDS011;13997;48.902;12.472;2023-04-15T06:13:56;16.70;;;10.35;;
26271;SDS011;13997;48.902;12.472;2023-04-15T06:16:21;14.32;;;9.68;;
26271;SDS011;13997;48.902;12.472;2023-04-15T06:18:47;16.85;;;11.00;;
26271;SDS011;13997;48.902;12.472;2023-04-15T06:21:13;15.02;;;9.27;;
26271;SDS011;13997;48.902;12.472;2023-04-15T06:23:39;43.88;;;20.67;;
26271;SDS011;13997;48.902;12.472;2023-04-15T06:26:05;42.97;;;19.08;;
26271;SDS011;13997;48.902;12.472;2023-04-15T06:28:31;19.02;;;10.60;;
26271;SDS011;13997;48.902;12.472;2023-04-15T06:30:57;20.33;;;11.35;;
26271;SDS011;13997;48.902;12.472;2023-04-15T06:33:22;15.18;;;9.23;;
26271;SDS011;13997;48.902;12.472;2023-04-15T06:35:48;10.98;;;8.32;;
26271;SDS011;13997;48.902;12.472;2023-04-15T06:38:14;16.05;;;8.73;;
26271;SDS011;13997;48.902;12.472;2023-04-15T06:40:39;10.35;;;6.97;;
26271;SDS011;13997;48.902;12.472;2023-04-15T06:43:06;9.88;;;7.95;;
26271;SDS011;13997;48.902;12.472;2023-04-15T06:45:32;11.77;;;8.13;;
26271;SDS011;13997;48.902;12.472;2023-04-15T06:47:57;13.38;;;8.73;;
26271;SDS011;13997;48.902;12.472;2023-04-15T06:50:23;19.15;;;8.30;;
26271;SDS011;13997;48.902;12.472;2023-04-15T06:52:48;11.57;;;8.07;;
26271;SDS011;13997;48.902;12.472;2023-04-15T06:55:14;10.48;;;7.32;;
26271;SDS011;13997;48.902;12.472;2023-04-15T06:57:40;9.18;;;6.85;;
26271;SDS011;13997;48.902;12.472;2023-04-15T07:00:06;17.42;;;10.23;;
26271;SDS011;13997;48.902;12.472;2023-04-15T07:02:32;12.57;;;8.52;;
26271;SDS011;13997;48.902;12.472;2023-04-15T07:04:58;12.40;;;8.90;;
26271;SDS011;13997;48.902;12.472;2023-04-15T07:07:23;10.40;;;7.65;;
26271;SDS011;13997;48.902;12.472;2023-04-15T07:09:49;15.90;;;9.48;;
26271;SDS011;13997;48.902;12.472;2023-04-15T07:12:16;12.23;;;8.25;;
26271;SDS011;13997;48.902;12.472;2023-04-15T07:14:42;9.60;;;7.35;;
26271;SDS011;13997;48.902;12.472;2023-04-15T07:17:08;11.27;;;7.03;;
26271;SDS011;13997;48.902;12.472;2023-04-15T07:19:33;10.95;;;7.75;;
26271;SDS011;13997;48.902;12.472;2023-04-15T07:21:59;11.45;;;7.25;;
26271;SDS011;13997;48.902;12.472;2023-04-15T07:24:25;9.65;;;6.60;;
26271;SDS011;13997;48.902;12.472;2023-04-15T07:26:52;9.32;;;6.80;;
26271;SDS011;13997;48.902;12.472;2023-04-15T07:29:21;9.50;;;6.40;;
26271;SDS011;13997;48.902;12.472;2023-04-15T07:31:47;9.48;;;6.43;;
26271;SDS011;13997;48.902;12.472;2023-04-15T07:34:13;8.65;;;6.47;;
26271;SDS011;13997;48.902;12.472;2023-04-15T07:36:38;8.77;;;6.60;;
26271;SDS011;13997;48.902;12.472;2023-04-15T07:39:04;10.30;;;7.03;;
26271;SDS011;13997;48.902;12.472;2023-04-15T07:41:30;10.32;;;6.25;;
26271;SDS011;13997;48.902;12.472;2023-04-15T07:43:55;9.63;;;6.07;;
26271;SDS011;13997;48.902;12.472;2023-04-15T07:46:21;10.82;;;6.88;;
26271;SDS011;13997;48.902;12.472;2023-04-15T07:48:48;14.68;;;7.15;;
26271;SDS011;13997;48.902;12.472;2023-04-15T07:51:15;8.73;;;6.63;;
26271;SDS011;13997;48.902;12.472;2023-04-15T07:53:41;8.68;;;6.32;;
26271;SDS011;13997;48.902;12.472;2023-04-15T07:56:08;10.32;;;6.93;;
26271;SDS011;13997;48.902;12.472;2023-04-15T07:58:34;10.90;;;7.07;;
26271;SDS011;13997;48.902;12.472;2023-04-15T08:00:59;9.95;;;7.03;;
26271;SDS011;13997;48.902;12.472;2023-04-15T08:03:25;9.82;;;6.80;;
26271;SDS011;13997;48.902;12.472;2023-04-15T08:05:51;12.52;;;7.50;;
26271;SDS011;13997;48.902;12.472;2023-04-15T08:08:17;12.77;;;8.50;;
26271;SDS011;13997;48.902;12.472;2023-04-15T08:10:42;14.90;;;8.45;;
26271;SDS011;13997;48.902;12.472;2023-04-15T08:13:08;10.70;;;7.75;;
26271;SDS011;13997;48.902;12.472;2023-04-15T08:15:33;11.25;;;7.47;;
26271;SDS011;13997;48.902;12.472;2023-04-15T08:17:59;9.80;;;7.15;;
26271;SDS011;13997;48.902;12.472;2023-04-15T08:20:25;8.82;;;6.45;;
26271;SDS011;13997;48.902;12.472;2023-04-15T08:22:51;7.72;;;5.97;;
26271;SDS011;13997;48.902;12.472;2023-04-15T08:25:17;8.10;;;5.93;;
26271;SDS011;13997;48.902;12.472;2023-04-15T08:27:44;8.57;;;6.07;;
26271;SDS011;13997;48.902;12.472;2023-04-15T08:30:10;12.02;;;6.47;;
26271;SDS011;13997;48.902;12.472;2023-04-15T08:32:37;9.23;;;7.35;;
26271;SDS011;13997;48.902;12.472;2023-04-15T08:35:02;7.97;;;5.72;;
26271;SDS011;13997;48.902;12.472;2023-04-15T08:37:28;17.98;;;12.63;;
26271;SDS011;13997;48.902;12.472;2023-04-15T08:39:54;8.10;;;7.07;;
26271;SDS011;13997;48.902;12.472;2023-04-15T08:42:22;7.25;;;5.75;;
26271;SDS011;13997;48.902;12.472;2023-04-15T08:44:52;7.10;;;4.78;;
26271;SDS011;13997;48.902;12.472;2023-04-15T08:47:19;7.35;;;4.88;;
26271;SDS011;13997;48.902;12.472;2023-04-15T08:49:46;5.60;;;4.40;;
26271;SDS011;13997;48.902;12.472;2023-04-15T08:54:43;6.45;;;4.45;;
26271;SDS011;13997;48.902;12.472;2023-04-15T08:57:09;7.45;;;5.15;;
26271;SDS011;13997;48.902;12.472;2023-04-15T08:59:35;7.38;;;5.10;;
26271;SDS011;13997;48.902;12.472;2023-04-15T09:02:01;6.28;;;4.85;;
26271;SDS011;13997;48.902;12.472;2023-04-15T09:04:27;10.13;;;6.18;;
26271;SDS011;13997;48.902;12.472;2023-04-15T09:06:53;7.15;;;4.65;;
26271;SDS011;13997;48.902;12.472;2023-04-15T09:09:19;10.38;;;5.32;;
26271;SDS011;13997;48.902;12.472;2023-04-15T09:11:44;15.98;;;7.25;;
26271;SDS011;13997;48.902;12.472;2023-04-15T09:14:11;7.07;;;4.60;;
26271;SDS011;13997;48.902;12.472;2023-04-15T09:19:22;6.75;;;4.97;;
26271;SDS011;13997;48.902;12.472;2023-04-15T09:21:50;10.13;;;5.97;;
26271;SDS011;13997;48.902;12.472;2023-04-15T09:24:18;5.68;;;3.88;;
26271;SDS011;13997;48.902;12.472;2023-04-15T09:26:43;5.20;;;3.80;;
26271;SDS011;13997;48.902;12.472;2023-04-15T09:29:09;3.88;;;2.78;;
26271;SDS011;13997;48.902;12.472;2023-04-15T09:31:39;4.78;;;3.65;;
26271;SDS011;13997;48.902;12.472;2023-04-15T09:34:06;6.38;;;3.80;;
26271;SDS011;13997;48.902;12.472;2023-04-15T09:39:15;5.90;;;3.30;;
26271;SDS011;13997;48.902;12.472;2023-04-15T09:41:41;3.75;;;2.75;;
26271;SDS011;13997;48.902;12.472;2023-04-15T09:44:29;3.70;;;2.70;;
26271;SDS011;13997;48.902;12.472;2023-04-15T09:46:54;3.58;;;2.70;;
26271;SDS011;13997;48.902;12.472;2023-04-15T09:49:20;3.65;;;2.55;;
26271;SDS011;13997;48.902;12.472;2023-04-15T09:51:45;3.95;;;2.70;;
26271;SDS011;13997;48.902;12.472;2023-04-15T09:54:11;6.13;;;4.00;;
26271;SDS011;13997;48.902;12.472;2023-04-15T09:56:37;4.65;;;2.72;;
26271;SDS011;13997;48.902;12.472;2023-04-15T09:59:06;6.05;;;4.13;;
26271;SDS011;13997;48.902;12.472;2023-04-15T10:01:33;4.18;;;3.35;;
26271;SDS011;13997;48.902;12.472;2023-04-15T10:04:01;3.60;;;2.90;;
26271;SDS011;13997;48.902;12.472;2023-04-15T10:06:28;5.65;;;3.17;;
26271;SDS011;13997;48.902;12.472;2023-04-15T10:08:54;6.32;;;3.30;;
26271;SDS011;13997;48.902;12.472;2023-04-15T10:11:22;5.50;;;3.67;;
26271;SDS011;13997;48.902;12.472;2023-04-15T10:13:49;5.10;;;3.80;;
26271;SDS011;13997;48.902;12.472;2023-04-15T10:16:15;6.13;;;4.18;;
26271;SDS011;13997;48.902;12.472;2023-04-15T10:18:44;6.90;;;4.50;;
26271;SDS011;13997;48.902;12.472;2023-04-15T10:21:12;6.10;;;4.03;;
26271;SDS011;13997;48.902;12.472;2023-04-15T10:23:42;6.90;;;4.18;;
26271;SDS011;13997;48.902;12.472;2023-04-15T10:26:11;4.97;;;3.83;;
26271;SDS011;13997;48.902;12.472;2023-04-15T10:28:39;6.63;;;4.18;;
26271;SDS011;13997;48.902;12.472;2023-04-15T10:31:05;7.05;;;3.40;;
26271;SDS011;13997;48.902;12.472;2023-04-15T10:33:31;9.65;;;4.30;;
26271;SDS011;13997;48.902;12.472;2023-04-15T10:35:57;6.00;;;3.50;;
26271;SDS011;13997;48.902;12.472;2023-04-15T10:38:31;5.63;;;3.53;;
26271;SDS011;13997;48.902;12.472;2023-04-15T10:46:57;3.83;;;2.80;;
26271;SDS011;13997;48.902;12.472;2023-04-15T10:49:12;7.63;;;3.72;;
26271;SDS011;13997;48.902;12.472;2023-04-15T10:51:40;5.78;;;4.15;;
26271;SDS011;13997;48.902;12.472;2023-04-15T10:54:14;5.68;;;3.55;;
26271;SDS011;13997;48.902;12.472;2023-04-15T10:56:41;4.07;;;3.03;;
26271;SDS011;13997;48.902;12.472;2023-04-15T10:59:08;3.83;;;2.92;;
26271;SDS011;13997;48.902;12.472;2023-04-15T11:01:54;5.25;;;3.30;;
26271;SDS011;13997;48.902;12.472;2023-04-15T11:10:05;3.63;;;2.45;;
26271;SDS011;13997;48.902;12.472;2023-04-15T11:13:04;5.15;;;2.70;;
26271;SDS011;13997;48.902;12.472;2023-04-15T11:15:41;3.88;;;2.78;;
26271;SDS011;13997;48.902;12.472;2023-04-15T11:20:46;13.05;;;4.10;;
26271;SDS011;13997;48.902;12.472;2023-04-15T11:23:16;2.60;;;2.05;;
26271;SDS011;13997;48.902;12.472;2023-04-15T11:25:43;5.68;;;2.63;;
26271;SDS011;13997;48.902;12.472;2023-04-15T11:28:09;3.55;;;2.05;;
26271;SDS011;13997;48.902;12.472;2023-04-15T11:30:36;2.00;;;1.65;;
26271;SDS011;13997;48.902;12.472;2023-04-15T11:33:03;2.67;;;1.58;;
26271;SDS011;13997;48.902;12.472;2023-04-15T11:35:30;2.15;;;1.20;;
26271;SDS011;13997;48.902;12.472;2023-04-15T11:37:56;5.95;;;1.60;;
26271;SDS011;13997;48.902;12.472;2023-04-15T11:40:25;4.45;;;2.40;;
26271;SDS011;13997;48.902;12.472;2023-04-15T11:43:03;2.25;;;1.60;;
26271;SDS011;13997;48.902;12.472;2023-04-15T11:45:28;3.55;;;2.10;;
26271;SDS011;13997;48.902;12.472;2023-04-15T11:47:54;3.13;;;2.00;;
26271;SDS011;13997;48.902;12.472;2023-04-15T11:50:28;4.22;;;2.17;;
26271;SDS011;13997;48.902;12.472;2023-04-15T11:52:54;3.30;;;2.13;;
26271;SDS011;13997;48.902;12.472;2023-04-15T11:55:24;7.80;;;2.72;;
26271;SDS011;13997;48.902;12.472;2023-04-15T12:00:34;4.10;;;2.40;;
26271;SDS011;13997;48.902;12.472;2023-04-15T12:11:17;3.25;;;2.00;;
26271;SDS011;13997;48.902;12.472;2023-04-15T12:14:04;2.63;;;2.10;;
26271;SDS011;13997;48.902;12.472;2023-04-15T12:16:30;2.63;;;1.50;;
26271;SDS011;13997;48.902;12.472;2023-04-15T12:18:58;2.55;;;1.48;;
26271;SDS011;13997;48.902;12.472;2023-04-15T12:21:26;1.70;;;1.48;;
26271;SDS011;13997;48.902;12.472;2023-04-15T12:26:27;9.77;;;3.90;;
26271;SDS011;13997;48.902;12.472;2023-04-15T12:29:15;11.52;;;4.28;;
26271;SDS011;13997;48.902;12.472;2023-04-15T12:31:51;10.75;;;4.50;;
26271;SDS011;13997;48.902;12.472;2023-04-15T12:34:31;4.13;;;2.42;;
26271;SDS011;13997;48.902;12.472;2023-04-15T12:36:59;6.22;;;2.58;;
26271;SDS011;13997;48.902;12.472;2023-04-15T12:39:26;5.75;;;2.92;;
26271;SDS011;13997;48.902;12.472;2023-04-15T12:41:53;14.13;;;5.72;;
26271;SDS011;13997;48.902;12.472;2023-04-15T12:44:21;14.20;;;5.20;;
26271;SDS011;13997;48.902;12.472;2023-04-15T12:46:48;12.85;;;5.82;;
26271;SDS011;13997;48.902;12.472;2023-04-15T12:49:14;11.38;;;5.80;;
26271;SDS011;13997;48.902;12.472;2023-04-15T12:51:43;4.72;;;2.83;;
26271;SDS011;13997;48.902;12.472;2023-04-15T12:54:09;7.63;;;3.38;;
26271;SDS011;13997;48.902;12.472;2023-04-15T12:56:35;3.72;;;2.75;;
26271;SDS011;13997;48.902;12.472;2023-04-15T12:59:00;5.72;;;3.80;;
26271;SDS011;13997;48.902;12.472;2023-04-15T13:01:26;6.68;;;3.42;;
26271;SDS011;13997;48.902;12.472;2023-04-15T13:03:52;10.10;;;6.22;;
26271;SDS011;13997;48.902;12.472;2023-04-15T13:06:18;7.70;;;4.18;;
26271;SDS011;13997;48.902;12.472;2023-04-15T13:08:43;28.75;;;13.43;;
26271;SDS011;13997;48.902;12.472;2023-04-15T13:11:09;18.77;;;8.60;;
26271;SDS011;13997;48.902;12.472;2023-04-15T13:13:35;25.05;;;11.77;;
26271;SDS011;13997;48.902;12.472;2023-04-15T13:16:01;21.08;;;9.48;;
26271;SDS011;13997;48.902;12.472;2023-04-15T13:18:27;29.02;;;12.88;;
26271;SDS011;13997;48.902;12.472;2023-04-15T13:20:53;52.78;;;24.27;;
26271;SDS011;13997;48.902;12.472;2023-04-15T13:23:19;44.08;;;19.42;;
26271;SDS011;13997;48.902;12.472;2023-04-15T13:25:44;11.80;;;5.20;;
26271;SDS011;13997;48.902;12.472;2023-04-15T13:28:10;3.13;;;2.47;;
26271;SDS011;13997;48.902;12.472;2023-04-15T13:30:36;4.78;;;2.50;;
26271;SDS011;13997;48.902;12.472;2023-04-15T13:33:03;4.20;;;2.90;;
26271;SDS011;13997;48.902;12.472;2023-04-15T13:35:31;3.22;;;2.35;;
26271;SDS011;13997;48.902;12.472;2023-04-15T13:37:56;3.45;;;2.97;;
26271;SDS011;13997;48.902;12.472;2023-04-15T13:40:22;5.45;;;3.75;;
26271;SDS011;13997;48.902;12.472;2023-04-15T13:42:47;6.25;;;3.28;;
26271;SDS011;13997;48.902;12.472;2023-04-15T13:45:13;14.23;;;7.35;;
26271;SDS011;13997;48.902;12.472;2023-04-15T13:47:40;8.25;;;5.20;;
26271;SDS011;13997;48.902;12.472;2023-04-15T13:50:06;7.80;;;5.43;;
26271;SDS011;13997;48.902;12.472;2023-04-15T13:52:32;8.68;;;4.40;;
26271;SDS011;13997;48.902;12.472;2023-04-15T13:54:57;5.60;;;4.40;;
26271;SDS011;13997;48.902;12.472;2023-04-15T13:57:24;6.07;;;3.30;;
26271;SDS011;13997;48.902;12.472;2023-04-15T13:59:49;14.23;;;8.98;;
26271;SDS011;13997;48.902;12.472;2023-04-15T14:02:15;8.40;;;4.50;;
26271;SDS011;13997;48.902;12.472;2023-04-15T14:04:40;8.82;;;5.38;;
26271;SDS011;13997;48.902;12.472;2023-04-15T14:07:06;9.45;;;6.32;;
26271;SDS011;13997;48.902;12.472;2023-04-15T14:09:32;9.45;;;6.15;;
26271;SDS011;13997;48.902;12.472;2023-04-15T14:11:57;9.23;;;6.00;;
26271;SDS011;13997;48.902;12.472;2023-04-15T14:14:24;11.70;;;6.40;;
26271;SDS011;13997;48.902;12.472;2023-04-15T14:16:49;7.90;;;3.88;;
26271;SDS011;13997;48.902;12.472;2023-04-15T14:19:15;6.35;;;3.95;;
26271;SDS011;13997;48.902;12.472;2023-04-15T14:21:41;10.13;;;5.10;;
26271;SDS011;13997;48.902;12.472;2023-04-15T14:24:06;13.70;;;7.25;;
26271;SDS011;13997;48.902;12.472;2023-04-15T14:26:32;8.35;;;5.07;;
26271;SDS011;13997;48.902;12.472;2023-04-15T14:28:58;15.25;;;8.00;;
26271;SDS011;13997;48.902;12.472;2023-04-15T14:31:23;19.90;;;11.30;;
26271;SDS011;13997;48.902;12.472;2023-04-15T14:33:49;20.13;;;9.35;;
26271;SDS011;13997;48.902;12.472;2023-04-15T14:36:15;14.00;;;7.50;;
26271;SDS011;13997;48.902;12.472;2023-04-15T14:38:40;12.63;;;6.43;;
26271;SDS011;13997;48.902;12.472;2023-04-15T14:41:06;25.98;;;12.63;;
26271;SDS011;13997;48.902;12.472;2023-04-15T14:43:33;10.20;;;5.85;;
26271;SDS011;13997;48.902;12.472;2023-04-15T14:45:59;7.63;;;4.28;;
26271;SDS011;13997;48.902;12.472;2023-04-15T14:48:24;9.00;;;5.80;;
26271;SDS011;13997;48.902;12.472;2023-04-15T14:50:50;11.38;;;5.85;;
26271;SDS011;13997;48.902;12.472;2023-04-15T14:53:16;9.38;;;4.97;;
26271;SDS011;13997;48.902;12.472;2023-04-15T14:55:42;8.57;;;4.50;;